sensor_id;sensor_type;location;lat;lon;timestamp;P1;durP1;ratioP1;P2;durP2;ratioP2
76439;SDS011;65274;44.982;20.060;2024-03-08T02:14:34;198.80;;;58.88;;
76439;SDS011;65274;44.982;20.060;2024-03-08T02:17:22;183.85;;;57.20;;
76439;SDS011;65274;44.982;20.060;2024-03-08T02:20:18;186.25;;;56.40;;
76439;SDS011;65274;44.982;20.060;2024-03-08T02:22:55;181.75;;;54.42;;
76439;SDS011;65274;44.982;20.060;2024-03-08T02:34:14;194.98;;;58.05;;
76439;SDS011;65274;44.982;20.060;2024-03-08T02:37:21;195.95;;;56.38;;
76439;SDS011;65274;44.982;20.060;2024-03-08T02:40:15;185.77;;;57.33;;
76439;SDS011;65274;44.982;20.060;2024-03-08T02:42:47;221.38;;;64.85;;
76439;SDS011;65274;44.982;20.060;2024-03-08T02:45:36;175.45;;;55.58;;
76439;SDS011;65274;44.982;20.060;2024-03-08T02:48:07;216.73;;;64.85;;
76439;SDS011;65274;44.982;20.060;2024-03-08T02:50:34;176.23;;;58.10;;
76439;SDS011;65274;44.982;20.060;2024-03-08T02:58:19;217.40;;;61.88;;
76439;SDS011;65274;44.982;20.060;2024-03-08T03:01:11;210.13;;;64.22;;
76439;SDS011;65274;44.982;20.060;2024-03-08T03:04:19;183.65;;;60.92;;
76439;SDS011;65274;44.982;20.060;2024-03-08T03:07:09;226.55;;;64.30;;
76439;SDS011;65274;44.982;20.060;2024-03-08T03:15:13;191.45;;;57.92;;
76439;SDS011;65274;44.982;20.060;2024-03-08T03:17:40;182.63;;;60.60;;
76439;SDS011;65274;44.982;20.060;2024-03-08T03:20:51;202.23;;;62.42;;
76439;SDS011;65274;44.982;20.060;2024-03-08T03:44:38;206.27;;;62.78;;
76439;SDS011;65274;44.982;20.060;2024-03-08T03:47:55;203.75;;;62.67;;
76439;SDS011;65274;44.982;20.060;2024-03-08T03:50:49;251.23;;;70.75;;
76439;SDS011;65274;44.982;20.060;2024-03-08T04:01:25;256.67;;;77.13;;
76439;SDS011;65274;44.982;20.060;2024-03-08T04:32:50;247.68;;;73.18;;
76439;SDS011;65274;44.982;20.060;2024-03-08T09:22:52;28.77;;;15.88;;
76439;SDS011;65274;44.982;20.060;2024-03-08T13:59:55;24.80;;;19.25;;
76439;SDS011;65274;44.982;20.060;2024-03-08T14:02:22;22.35;;;17.00;;
76439;SDS011;65274;44.982;20.060;2024-03-08T14:04:53;24.10;;;18.02;;
76439;SDS011;65274;44.982;20.060;2024-03-08T14:07:22;21.92;;;18.00;;
76439;SDS011;65274;44.982;20.060;2024-03-08T14:09:49;24.20;;;20.05;;
76439;SDS011;65274;44.982;20.060;2024-03-08T14:12:18;23.45;;;20.67;;
76439;SDS011;65274;44.982;20.060;2024-03-08T14:14:44;28.13;;;22.65;;
76439;SDS011;65274;44.982;20.060;2024-03-08T16:08:57;54.35;;;28.70;;
76439;SDS011;65274;44.982;20.060;2024-03-08T16:11:25;58.80;;;30.27;;
76439;SDS011;65274;44.982;20.060;2024-03-08T16:13:52;58.55;;;35.83;;
76439;SDS011;65274;44.982;20.060;2024-03-08T16:16:18;59.10;;;33.67;;
76439;SDS011;65274;44.982;20.060;2024-03-08T16:18:45;52.38;;;28.60;;
76439;SDS011;65274;44.982;20.060;2024-03-08T16:21:11;52.22;;;27.92;;
76439;SDS011;65274;44.982;20.060;2024-03-08T16:23:37;47.72;;;27.65;;
76439;SDS011;65274;44.982;20.060;2024-03-08T16:26:03;56.63;;;28.50;;
76439;SDS011;65274;44.982;20.060;2024-03-08T16:28:30;49.25;;;25.98;;
76439;SDS011;65274;44.982;20.060;2024-03-08T16:31:03;47.33;;;25.73;;
76439;SDS011;65274;44.982;20.060;2024-03-08T16:33:32;49.10;;;26.35;;
76439;SDS011;65274;44.982;20.060;2024-03-08T16:35:59;47.63;;;27.83;;
76439;SDS011;65274;44.982;20.060;2024-03-08T16:38:27;47.72;;;25.55;;
76439;SDS011;65274;44.982;20.060;2024-03-08T16:40:53;49.08;;;26.00;;
76439;SDS011;65274;44.982;20.060;2024-03-08T16:43:21;49.28;;;23.92;;
76439;SDS011;65274;44.982;20.060;2024-03-08T16:45:47;42.78;;;23.17;;
76439;SDS011;65274;44.982;20.060;2024-03-08T16:48:15;40.00;;;22.85;;
76439;SDS011;65274;44.982;20.060;2024-03-08T16:50:43;47.50;;;24.65;;
76439;SDS011;65274;44.982;20.060;2024-03-08T16:53:10;44.97;;;24.75;;
76439;SDS011;65274;44.982;20.060;2024-03-08T16:55:36;42.85;;;22.55;;
76439;SDS011;65274;44.982;20.060;2024-03-08T16:58:03;44.17;;;25.00;;
76439;SDS011;65274;44.982;20.060;2024-03-08T17:00:30;58.13;;;27.80;;
76439;SDS011;65274;44.982;20.060;2024-03-08T17:02:59;49.53;;;26.55;;
76439;SDS011;65274;44.982;20.060;2024-03-08T17:05:33;54.13;;;28.67;;
76439;SDS011;65274;44.982;20.060;2024-03-08T17:08:03;58.80;;;29.67;;
76439;SDS011;65274;44.982;20.060;2024-03-08T17:10:35;60.67;;;28.35;;
76439;SDS011;65274;44.982;20.060;2024-03-08T17:13:02;63.05;;;31.90;;
76439;SDS011;65274;44.982;20.060;2024-03-08T17:15:30;60.88;;;29.83;;
76439;SDS011;65274;44.982;20.060;2024-03-08T17:18:11;55.00;;;26.15;;
76439;SDS011;65274;44.982;20.060;2024-03-08T17:20:53;60.10;;;29.67;;
76439;SDS011;65274;44.982;20.060;2024-03-08T17:26:06;64.18;;;30.05;;
76439;SDS011;65274;44.982;20.060;2024-03-08T17:28:34;82.20;;;37.85;;
76439;SDS011;65274;44.982;20.060;2024-03-08T17:31:03;86.57;;;38.17;;
76439;SDS011;65274;44.982;20.060;2024-03-08T17:33:32;92.40;;;40.67;;
76439;SDS011;65274;44.982;20.060;2024-03-08T17:36:07;76.32;;;37.60;;
76439;SDS011;65274;44.982;20.060;2024-03-08T17:38:42;77.82;;;39.72;;
76439;SDS011;65274;44.982;20.060;2024-03-08T17:41:17;79.40;;;40.97;;
76439;SDS011;65274;44.982;20.060;2024-03-08T17:43:48;74.50;;;39.53;;
76439;SDS011;65274;44.982;20.060;2024-03-08T17:46:15;73.03;;;37.70;;
76439;SDS011;65274;44.982;20.060;2024-03-08T17:51:11;69.72;;;38.00;;
76439;SDS011;65274;44.982;20.060;2024-03-08T17:53:39;56.50;;;31.92;;
76439;SDS011;65274;44.982;20.060;2024-03-08T17:56:15;58.95;;;30.27;;
76439;SDS011;65274;44.982;20.060;2024-03-08T17:58:45;52.00;;;29.48;;
76439;SDS011;65274;44.982;20.060;2024-03-08T18:01:16;48.47;;;25.33;;
76439;SDS011;65274;44.982;20.060;2024-03-08T18:03:48;45.60;;;25.75;;
76439;SDS011;65274;44.982;20.060;2024-03-08T18:06:15;46.60;;;25.30;;
76439;SDS011;65274;44.982;20.060;2024-03-08T18:08:41;43.78;;;23.48;;
76439;SDS011;65274;44.982;20.060;2024-03-08T18:11:09;50.83;;;27.70;;
76439;SDS011;65274;44.982;20.060;2024-03-08T18:13:35;53.15;;;26.73;;
76439;SDS011;65274;44.982;20.060;2024-03-08T18:16:01;57.22;;;27.42;;
76439;SDS011;65274;44.982;20.060;2024-03-08T18:18:28;52.63;;;29.67;;
76439;SDS011;65274;44.982;20.060;2024-03-08T18:20:55;60.00;;;29.30;;
76439;SDS011;65274;44.982;20.060;2024-03-08T18:23:21;50.97;;;26.00;;
76439;SDS011;65274;44.982;20.060;2024-03-08T18:25:51;55.20;;;27.33;;
76439;SDS011;65274;44.982;20.060;2024-03-08T18:28:18;48.97;;;27.75;;
76439;SDS011;65274;44.982;20.060;2024-03-08T18:30:45;56.83;;;27.27;;
76439;SDS011;65274;44.982;20.060;2024-03-08T18:33:14;55.55;;;28.10;;
76439;SDS011;65274;44.982;20.060;2024-03-08T18:35:42;52.08;;;27.20;;
76439;SDS011;65274;44.982;20.060;2024-03-08T18:38:12;57.55;;;29.33;;
76439;SDS011;65274;44.982;20.060;2024-03-08T18:40:39;52.88;;;25.63;;
76439;SDS011;65274;44.982;20.060;2024-03-08T18:43:12;59.50;;;29.05;;
76439;SDS011;65274;44.982;20.060;2024-03-08T18:45:52;48.75;;;26.27;;
76439;SDS011;65274;44.982;20.060;2024-03-08T18:48:20;51.03;;;26.73;;
76439;SDS011;65274;44.982;20.060;2024-03-08T18:50:46;47.63;;;25.10;;
76439;SDS011;65274;44.982;20.060;2024-03-08T18:53:13;55.45;;;24.70;;
76439;SDS011;65274;44.982;20.060;2024-03-08T18:55:39;52.15;;;27.73;;
76439;SDS011;65274;44.982;20.060;2024-03-08T18:58:08;50.90;;;25.67;;
76439;SDS011;65274;44.982;20.060;2024-03-08T19:00:36;57.20;;;26.10;;
76439;SDS011;65274;44.982;20.060;2024-03-08T19:03:03;52.67;;;26.00;;
76439;SDS011;65274;44.982;20.060;2024-03-08T19:05:37;55.08;;;26.15;;
76439;SDS011;65274;44.982;20.060;2024-03-08T19:08:07;57.25;;;28.58;;
76439;SDS011;65274;44.982;20.060;2024-03-08T19:10:34;56.08;;;27.60;;
76439;SDS011;65274;44.982;20.060;2024-03-08T19:13:01;54.20;;;28.10;;
76439;SDS011;65274;44.982;20.060;2024-03-08T19:15:27;56.58;;;28.67;;
76439;SDS011;65274;44.982;20.060;2024-03-08T19:17:57;60.15;;;29.30;;
76439;SDS011;65274;44.982;20.060;2024-03-08T19:20:25;57.50;;;28.23;;
76439;SDS011;65274;44.982;20.060;2024-03-08T19:22:52;62.90;;;29.80;;
76439;SDS011;65274;44.982;20.060;2024-03-08T19:25:29;59.92;;;29.33;;
76439;SDS011;65274;44.982;20.060;2024-03-08T19:28:07;68.68;;;30.48;;
76439;SDS011;65274;44.982;20.060;2024-03-08T19:30:38;60.40;;;29.00;;
76439;SDS011;65274;44.982;20.060;2024-03-08T19:33:25;57.65;;;27.27;;
76439;SDS011;65274;44.982;20.060;2024-03-08T19:35:52;64.47;;;31.20;;
76439;SDS011;65274;44.982;20.060;2024-03-08T19:38:24;59.95;;;31.08;;
76439;SDS011;65274;44.982;20.060;2024-03-08T19:41:02;57.92;;;29.55;;
76439;SDS011;65274;44.982;20.060;2024-03-08T19:43:34;55.25;;;28.33;;
76439;SDS011;65274;44.982;20.060;2024-03-08T19:46:07;64.03;;;29.40;;
76439;SDS011;65274;44.982;20.060;2024-03-08T19:48:36;56.13;;;29.60;;
76439;SDS011;65274;44.982;20.060;2024-03-08T19:51:04;54.67;;;27.00;;
76439;SDS011;65274;44.982;20.060;2024-03-08T19:53:30;55.70;;;26.65;;
76439;SDS011;65274;44.982;20.060;2024-03-08T19:55:57;57.35;;;28.55;;
76439;SDS011;65274;44.982;20.060;2024-03-08T19:58:25;58.90;;;28.17;;
76439;SDS011;65274;44.982;20.060;2024-03-08T20:00:52;61.63;;;28.77;;
76439;SDS011;65274;44.982;20.060;2024-03-08T20:03:18;54.65;;;27.42;;
76439;SDS011;65274;44.982;20.060;2024-03-08T20:05:49;52.58;;;28.45;;
76439;SDS011;65274;44.982;20.060;2024-03-08T20:08:18;66.05;;;31.42;;
76439;SDS011;65274;44.982;20.060;2024-03-08T20:10:46;58.70;;;27.15;;
76439;SDS011;65274;44.982;20.060;2024-03-08T20:13:12;67.65;;;28.42;;
76439;SDS011;65274;44.982;20.060;2024-03-08T20:15:40;63.67;;;31.38;;
76439;SDS011;65274;44.982;20.060;2024-03-08T20:18:10;58.70;;;28.88;;
76439;SDS011;65274;44.982;20.060;2024-03-08T20:20:37;62.25;;;29.45;;
76439;SDS011;65274;44.982;20.060;2024-03-08T20:23:05;57.80;;;29.85;;
76439;SDS011;65274;44.982;20.060;2024-03-08T20:25:34;64.03;;;29.52;;
76439;SDS011;65274;44.982;20.060;2024-03-08T20:28:04;55.95;;;28.55;;
76439;SDS011;65274;44.982;20.060;2024-03-08T20:30:30;62.38;;;29.65;;
76439;SDS011;65274;44.982;20.060;2024-03-08T20:32:57;58.08;;;30.88;;
76439;SDS011;65274;44.982;20.060;2024-03-08T20:35:30;62.25;;;29.95;;
76439;SDS011;65274;44.982;20.060;2024-03-08T20:40:45;65.32;;;31.08;;
76439;SDS011;65274;44.982;20.060;2024-03-08T20:43:13;46.87;;;23.83;;
76439;SDS011;65274;44.982;20.060;2024-03-08T20:45:39;69.60;;;32.30;;
76439;SDS011;65274;44.982;20.060;2024-03-08T20:48:06;60.78;;;30.90;;
76439;SDS011;65274;44.982;20.060;2024-03-08T20:50:34;49.13;;;24.80;;
76439;SDS011;65274;44.982;20.060;2024-03-08T20:53:31;63.53;;;31.10;;
76439;SDS011;65274;44.982;20.060;2024-03-08T20:55:58;65.35;;;32.10;;
76439;SDS011;65274;44.982;20.060;2024-03-08T20:58:27;71.13;;;35.17;;
76439;SDS011;65274;44.982;20.060;2024-03-08T21:00:53;68.65;;;31.95;;
76439;SDS011;65274;44.982;20.060;2024-03-08T21:03:29;67.15;;;30.73;;
76439;SDS011;65274;44.982;20.060;2024-03-08T21:05:56;81.43;;;38.45;;
76439;SDS011;65274;44.982;20.060;2024-03-08T21:08:23;82.20;;;39.42;;
76439;SDS011;65274;44.982;20.060;2024-03-08T21:13:18;75.53;;;36.42;;
76439;SDS011;65274;44.982;20.060;2024-03-08T21:15:47;76.22;;;37.25;;
76439;SDS011;65274;44.982;20.060;2024-03-08T21:18:13;79.60;;;39.00;;
76439;SDS011;65274;44.982;20.060;2024-03-08T21:20:40;81.53;;;39.38;;
76439;SDS011;65274;44.982;20.060;2024-03-08T21:23:07;91.00;;;40.00;;
76439;SDS011;65274;44.982;20.060;2024-03-08T21:25:35;77.78;;;35.05;;
76439;SDS011;65274;44.982;20.060;2024-03-08T21:28:04;79.35;;;36.55;;
76439;SDS011;65274;44.982;20.060;2024-03-08T21:30:34;74.80;;;35.22;;
76439;SDS011;65274;44.982;20.060;2024-03-08T21:33:02;82.05;;;35.60;;
76439;SDS011;65274;44.982;20.060;2024-03-08T21:35:37;83.60;;;34.08;;
76439;SDS011;65274;44.982;20.060;2024-03-08T21:38:08;75.40;;;34.65;;
76439;SDS011;65274;44.982;20.060;2024-03-08T21:40:35;81.80;;;33.38;;
76439;SDS011;65274;44.982;20.060;2024-03-08T21:43:04;71.47;;;33.45;;
76439;SDS011;65274;44.982;20.060;2024-03-08T21:45:31;69.63;;;34.38;;
76439;SDS011;65274;44.982;20.060;2024-03-08T21:47:59;74.50;;;33.95;;
76439;SDS011;65274;44.982;20.060;2024-03-08T21:50:26;68.93;;;33.03;;
76439;SDS011;65274;44.982;20.060;2024-03-08T21:52:57;90.95;;;35.75;;
76439;SDS011;65274;44.982;20.060;2024-03-08T21:58:13;80.35;;;35.95;;
76439;SDS011;65274;44.982;20.060;2024-03-08T22:00:45;69.30;;;31.38;;
76439;SDS011;65274;44.982;20.060;2024-03-08T22:03:14;70.82;;;32.35;;
76439;SDS011;65274;44.982;20.060;2024-03-08T22:05:42;71.85;;;32.35;;
76439;SDS011;65274;44.982;20.060;2024-03-08T22:08:10;74.63;;;33.70;;
76439;SDS011;65274;44.982;20.060;2024-03-08T22:10:36;82.10;;;35.55;;
76439;SDS011;65274;44.982;20.060;2024-03-08T22:13:10;77.57;;;38.00;;
76439;SDS011;65274;44.982;20.060;2024-03-08T22:15:38;68.82;;;33.35;;
76439;SDS011;65274;44.982;20.060;2024-03-08T22:18:21;73.63;;;32.90;;
76439;SDS011;65274;44.982;20.060;2024-03-08T22:21:07;70.38;;;34.25;;
76439;SDS011;65274;44.982;20.060;2024-03-08T22:23:43;66.47;;;31.77;;
76439;SDS011;65274;44.982;20.060;2024-03-08T22:29:05;75.78;;;32.28;;
76439;SDS011;65274;44.982;20.060;2024-03-08T22:31:32;72.70;;;34.83;;
76439;SDS011;65274;44.982;20.060;2024-03-08T22:34:01;78.88;;;35.38;;
76439;SDS011;65274;44.982;20.060;2024-03-08T22:36:27;78.45;;;33.95;;
76439;SDS011;65274;44.982;20.060;2024-03-08T22:38:53;71.85;;;31.40;;
76439;SDS011;65274;44.982;20.060;2024-03-08T22:41:19;65.38;;;32.03;;
76439;SDS011;65274;44.982;20.060;2024-03-08T22:43:46;69.35;;;32.20;;
76439;SDS011;65274;44.982;20.060;2024-03-08T22:46:16;77.85;;;35.20;;
76439;SDS011;65274;44.982;20.060;2024-03-08T22:48:44;74.07;;;32.28;;
76439;SDS011;65274;44.982;20.060;2024-03-08T22:51:11;66.13;;;32.42;;
76439;SDS011;65274;44.982;20.060;2024-03-08T22:53:40;77.72;;;33.25;;
76439;SDS011;65274;44.982;20.060;2024-03-08T22:56:08;76.00;;;32.88;;
76439;SDS011;65274;44.982;20.060;2024-03-08T23:01:04;71.80;;;33.05;;
76439;SDS011;65274;44.982;20.060;2024-03-08T23:03:31;73.18;;;33.50;;
76439;SDS011;65274;44.982;20.060;2024-03-08T23:06:03;71.00;;;32.22;;
76439;SDS011;65274;44.982;20.060;2024-03-08T23:08:33;69.63;;;31.85;;
76439;SDS011;65274;44.982;20.060;2024-03-08T23:11:00;63.85;;;31.10;;
76439;SDS011;65274;44.982;20.060;2024-03-08T23:13:29;73.50;;;30.10;;
76439;SDS011;65274;44.982;20.060;2024-03-08T23:15:59;65.75;;;31.73;;
76439;SDS011;65274;44.982;20.060;2024-03-08T23:18:35;74.32;;;30.50;;
76439;SDS011;65274;44.982;20.060;2024-03-08T23:21:04;81.57;;;32.03;;
76439;SDS011;65274;44.982;20.060;2024-03-08T23:23:33;68.32;;;31.75;;
76439;SDS011;65274;44.982;20.060;2024-03-08T23:26:00;64.55;;;30.48;;
76439;SDS011;65274;44.982;20.060;2024-03-08T23:28:29;70.97;;;32.88;;
76439;SDS011;65274;44.982;20.060;2024-03-08T23:30:56;64.35;;;29.80;;
76439;SDS011;65274;44.982;20.060;2024-03-08T23:33:22;70.05;;;32.75;;
76439;SDS011;65274;44.982;20.060;2024-03-08T23:35:49;67.35;;;29.42;;
76439;SDS011;65274;44.982;20.060;2024-03-08T23:38:15;71.32;;;29.70;;
76439;SDS011;65274;44.982;20.060;2024-03-08T23:40:44;79.32;;;32.03;;
76439;SDS011;65274;44.982;20.060;2024-03-08T23:43:10;76.10;;;32.63;;
76439;SDS011;65274;44.982;20.060;2024-03-08T23:45:37;71.32;;;32.00;;
76439;SDS011;65274;44.982;20.060;2024-03-08T23:48:04;75.25;;;32.20;;
76439;SDS011;65274;44.982;20.060;2024-03-08T23:50:31;80.18;;;34.85;;
76439;SDS011;65274;44.982;20.060;2024-03-08T23:52:59;87.90;;;33.35;;
76439;SDS011;65274;44.982;20.060;2024-03-08T23:55:26;71.35;;;30.98;;
76439;SDS011;65274;44.982;20.060;2024-03-08T23:57:55;67.47;;;29.95;;
